GBGIB EGTF-EGKL
Flight info
| Callsign | GBGIB |
|---|---|
| Flight time | N/A |
| Altitude | 2000 |
| Route | VFR |
| Aircraft | C152/L-DOV/N |
Departure
| Time | 2026-04-11 16:40 |
|---|---|
| Airport | Fairoaks Airport (EGTF) |
Arrival
| Time | N/A |
|---|---|
| Airport | Deanland Lewes Airfield (EGKL) |
| Time | Latitude | Longitude | Altitude | Speed | Heading |
|---|---|---|---|---|---|
| 2026-04-11 16:38 | 51.34908 | -0.55999 | 81 ft | 17 kts | 92° |
| 2026-04-11 16:38 | 51.34982 | -0.55781 | 82 ft | 23 kts | 60° |
| 2026-04-11 16:38 | 51.35049 | -0.55604 | 84 ft | 14 kts | 58° |
| 2026-04-11 16:38 | 51.35085 | -0.55500 | 84 ft | 6 kts | 85° |
| 2026-04-11 16:39 | 51.35048 | -0.55448 | 78 ft | 10 kts | 146° |
| 2026-04-11 16:39 | 51.34998 | -0.55397 | 69 ft | 5 kts | 181° |
| 2026-04-11 16:39 | 51.34917 | -0.55583 | 75 ft | 47 kts | 237° |
| 2026-04-11 16:39 | 51.34716 | -0.56123 | 255 ft | 56 kts | 237° |
| 2026-04-11 16:40 | 51.34535 | -0.56693 | 456 ft | 58 kts | 241° |
| 2026-04-11 16:40 | 51.34249 | -0.57129 | 625 ft | 69 kts | 200° |
| 2026-04-11 16:40 | 51.33714 | -0.57026 | 809 ft | 82 kts | 175° |
| 2026-04-11 16:40 | 51.33168 | -0.56753 | 980 ft | 80 kts | 172° |
| 2026-04-11 16:41 | 51.32655 | -0.56547 | 1189 ft | 70 kts | 178° |
| 2026-04-11 16:41 | 51.32184 | -0.56457 | 1310 ft | 70 kts | 190° |
| 2026-04-11 16:41 | 51.31885 | -0.56506 | 1358 ft | 74 kts | 184° |
| 2026-04-11 16:41 | 51.31409 | -0.56234 | 1454 ft | 88 kts | 147° |
| 2026-04-11 16:42 | 51.31131 | -0.55285 | 1466 ft | 106 kts | 109° |
| 2026-04-11 16:42 | 51.31025 | -0.54083 | 1368 ft | 106 kts | 109° |
| 2026-04-11 16:42 | 51.30940 | -0.52927 | 1404 ft | 103 kts | 104° |
| 2026-04-11 16:43 | 51.30784 | -0.50543 | 1292 ft | 113 kts | 104° |
| 2026-04-11 16:43 | 51.30788 | -0.49289 | 1257 ft | 114 kts | 93° |
| 2026-04-11 16:43 | 51.30901 | -0.48038 | 1201 ft | 116 kts | 88° |
| 2026-04-11 16:43 | 51.31057 | -0.46765 | 1099 ft | 113 kts | 86° |